Time;durP1;ratioP1;P1;durP2;ratioP2;P2;SDS_P1;SDS_P2;PMS_P1;PMS_P2;Temp;Humidity;BMP_temperature;BMP_pressure;BME280_temperature;BME280_humidity;BME280_pressure;Samples;Min_cycle;Max_cycle;Signal;HPM_P1;HPM_P2
2022/12/05 00:01:26;;;;;;;61.87;26.83;;;;;;;1.45;100.00;101293.55;5119676;55;1140843;-69
2022/12/05 00:06:34;;;;;;;65.17;29.80;;;;;;;1.45;100.00;101291.80;5026064;57;1141042;-69
2022/12/05 00:11:42;;;;;;;59.48;29.45;;;;;;;1.44;100.00;101292.69;5024703;56;1140969;-69
2022/12/05 00:16:49;;;;;;;63.92;29.45;;;;;;;1.46;100.00;101295.26;5085531;56;1140938;-66
2022/12/05 00:21:56;;;;;;;68.87;31.43;;;;;;;1.49;100.00;101292.58;5109994;56;1140875;-67
2022/12/05 00:27:02;;;;;;;65.23;26.13;;;;;;;1.46;100.00;101291.34;5066950;56;1140802;-67
2022/12/05 00:32:07;;;;;;;62.70;27.73;;;;;;;1.41;100.00;101297.98;5044772;57;1141079;-66
2022/12/05 00:37:13;;;;;;;54.83;25.47;;;;;;;1.38;100.00;101281.97;5027275;57;1141058;-66
2022/12/05 00:42:18;;;;;;;41.03;18.33;;;;;;;1.39;100.00;101286.73;5043747;56;1140978;-66
2022/12/05 00:47:24;;;;;;;55.30;25.27;;;;;;;1.41;100.00;101280.59;5124346;55;1140932;-69
2022/12/05 00:52:32;;;;;;;61.40;26.53;;;;;;;1.39;100.00;101267.19;5104725;55;1140643;-70
2022/12/05 00:57:37;;;;;;;59.90;26.80;;;;;;;1.38;100.00;101264.18;5104454;55;1141007;-69
2022/12/05 01:02:43;;;;;;;58.83;27.52;;;;;;;1.40;100.00;101264.99;5178229;55;1140791;-66
2022/12/05 01:07:49;;;;;;;53.90;23.70;;;;;;;1.40;100.00;101271.51;5189813;55;1140803;-68
2022/12/05 01:12:55;;;;;;;51.47;24.53;;;;;;;1.37;100.00;101283.34;5190845;55;1140784;-67
2022/12/05 01:18:01;;;;;;;59.60;25.70;;;;;;;1.32;100.00;101271.73;5211234;55;1140772;-65
2022/12/05 01:23:07;;;;;;;57.00;25.73;;;;;;;1.28;100.00;101268.80;5204909;55;1140734;-69
2022/12/05 01:28:14;;;;;;;61.67;26.47;;;;;;;1.30;100.00;101278.73;5188459;55;1140805;-65
2022/12/05 01:33:19;;;;;;;48.70;23.40;;;;;;;1.31;100.00;101277.84;5117906;56;1140787;-66
2022/12/05 01:38:25;;;;;;;61.17;26.17;;;;;;;1.37;100.00;101292.47;5270001;54;1140867;-66
2022/12/05 01:43:31;;;;;;;50.60;24.60;;;;;;;1.37;100.00;101297.23;5178999;55;1140892;-68
2022/12/05 01:48:37;;;;;;;59.67;25.93;;;;;;;1.31;100.00;101286.97;5113161;55;1141070;-69
2022/12/05 01:53:43;;;;;;;50.03;23.07;;;;;;;1.28;100.00;101293.55;5133114;55;1140889;-66
2022/12/05 01:58:49;;;;;;;65.28;23.92;;;;;;;1.27;100.00;101281.42;5113078;55;1140870;-68
2022/12/05 02:03:58;;;;;;;48.53;22.07;;;;;;;1.26;100.00;101279.70;5235995;54;1140670;-69
2022/12/05 02:09:04;;;;;;;52.27;23.20;;;;;;;1.24;100.00;101261.09;5251644;54;1140860;-70
2022/12/05 02:14:33;;;;;;;53.27;24.13;;;;;;;1.27;100.00;101271.45;5212948;53;1140875;-68
2022/12/05 02:20:02;;;;;;;56.58;23.80;;;;;;;1.29;100.00;101273.56;5224438;54;1140974;-67
2022/12/05 02:25:34;;;;;;;53.97;24.17;;;;;;;1.27;100.00;101264.48;5230529;54;1140878;-67
2022/12/05 02:31:03;;;;;;;51.77;24.30;;;;;;;1.27;100.00;101264.48;5144140;55;1140922;-69
2022/12/05 02:36:19;;;;;;;50.33;22.17;;;;;;;1.26;100.00;101270.59;5198126;55;1141109;-68
2022/12/05 02:41:40;;;;;;;54.37;22.83;;;;;;;1.25;100.00;101271.93;5165911;55;1140774;-69
2022/12/05 02:46:48;;;;;;;51.97;23.60;;;;;;;1.25;100.00;101280.60;5062573;56;1140855;-65
2022/12/05 02:51:58;;;;;;;56.77;22.60;;;;;;;1.29;100.00;101261.84;5091606;56;1140829;-70
2022/12/05 02:57:06;;;;;;;58.10;25.53;;;;;;;1.27;100.00;101262.33;5111475;56;1140880;-70
2022/12/05 03:02:27;;;;;;;55.43;23.97;;;;;;;1.26;100.00;101269.73;5127466;55;1140923;-70
2022/12/05 03:07:35;;;;;;;51.98;24.72;;;;;;;1.20;100.00;101257.75;5155883;55;1140888;-70
2022/12/05 03:12:48;;;;;;;60.77;25.03;;;;;;;1.21;100.00;101251.64;5158002;54;1141093;-67
2022/12/05 03:18:03;;;;;;;;;;;;;;;1.24;100.00;101251.98;5181927;55;1140804;-67
2022/12/05 03:23:20;;;;;;;54.67;24.82;;;;;;;1.26;100.00;101248.44;5175269;55;974176;-69
2022/12/05 03:28:34;;;;;;;58.47;25.87;;;;;;;1.20;100.00;101247.77;5140237;55;1138784;-66
2022/12/05 03:33:45;;;;;;;45.45;22.20;;;;;;;1.17;100.00;101248.70;5239568;54;1140872;-66
2022/12/05 03:39:14;;;;;;;48.73;22.40;;;;;;;1.13;100.00;101250.98;5314742;54;1140973;-64
2022/12/05 03:44:36;;;;;;;46.17;23.27;;;;;;;1.18;100.00;101240.45;5231683;54;1140961;-68
2022/12/05 03:49:49;;;;;;;52.27;23.38;;;;;;;1.14;100.00;101247.48;5137739;54;1141028;-67
2022/12/05 03:54:59;;;;;;;57.58;24.50;;;;;;;1.16;100.00;101247.00;5125998;54;1140807;-68
2022/12/05 04:00:13;;;;;;;50.40;23.67;;;;;;;1.14;100.00;101251.84;5215410;55;1140891;-70
2022/12/05 04:05:29;;;;;;;;;;;;;;;1.14;100.00;101252.69;5211645;54;1140958;-66
2022/12/05 04:10:48;;;;;;;53.77;23.37;;;;;;;1.13;100.00;101271.82;5323258;54;974110;-66
2022/12/05 04:21:38;;;;;;;56.27;26.23;;;;;;;1.11;100.00;101278.81;5303657;54;1140964;-67
2022/12/05 04:26:49;;;;;;;60.77;27.43;;;;;;;1.09;100.00;101280.60;5319403;54;1141049;-67
2022/12/05 04:31:59;;;;;;;51.70;23.63;;;;;;;1.08;100.00;101268.92;5289535;54;1140874;-66
2022/12/05 04:37:18;;;;;;;55.43;24.77;;;;;;;1.08;100.00;101259.36;5203912;54;1141027;-66
2022/12/05 04:42:29;;;;;;;59.73;25.20;;;;;;;1.09;100.00;101250.65;5252464;54;1140752;-68
2022/12/05 04:47:42;;;;;;;54.83;24.30;;;;;;;1.10;100.00;101241.08;5293901;54;1140752;-67
2022/12/05 04:52:51;;;;;;;52.60;24.80;;;;;;;1.13;100.00;101241.86;5293316;54;1140950;-68
2022/12/05 04:58:12;;;;;;;55.27;26.23;;;;;;;1.13;100.00;101239.70;5314361;54;1140910;-67
2022/12/05 05:03:31;;;;;;;65.60;28.47;;;;;;;1.10;100.00;101231.97;5268406;54;1141162;-68
2022/12/05 05:08:37;;;;;;;59.13;27.17;;;;;;;1.09;100.00;101229.81;5265014;54;1140988;-69
2022/12/05 05:13:43;;;;;;;66.92;28.83;;;;;;;1.11;100.00;101228.47;5290811;54;1148313;-66
2022/12/05 05:18:50;;;;;;;59.25;25.08;;;;;;;1.13;100.00;101221.02;5219232;55;1140911;-68
2022/12/05 05:23:57;;;;;;;69.97;30.20;;;;;;;1.16;100.00;101220.09;5254891;54;1140919;-68
2022/12/05 05:29:04;;;;;;;73.47;30.37;;;;;;;1.13;100.00;101213.66;5291374;54;1140816;-70
2022/12/05 05:34:14;;;;;;;61.77;25.67;;;;;;;1.11;100.00;101217.59;5249443;54;1141136;-68
2022/12/05 05:39:20;;;;;;;64.43;26.43;;;;;;;1.07;100.00;101211.23;5190605;54;1140994;-68
2022/12/05 05:44:26;;;;;;;64.93;27.43;;;;;;;1.05;100.00;101216.48;5195650;54;1140954;-66
2022/12/05 05:49:32;;;;;;;52.57;27.07;;;;;;;1.09;100.00;101227.20;5206935;54;1141111;-69
2022/12/05 05:54:38;;;;;;;87.62;40.60;;;;;;;1.10;100.00;101229.36;5292574;54;1141005;-68
2022/12/05 05:59:44;;;;;;;57.23;27.82;;;;;;;1.10;100.00;101225.01;5165030;54;1140845;-68
2022/12/05 06:04:50;;;;;;;59.80;28.70;;;;;;;1.08;100.00;101229.40;5080811;55;1140825;-67
2022/12/05 06:09:55;;;;;;;61.97;30.67;;;;;;;1.11;100.00;101231.92;5123939;55;1140948;-68
2022/12/05 06:15:01;;;;;;;57.10;27.87;;;;;;;1.15;100.00;101223.14;5103587;55;1140972;-68
2022/12/05 06:20:08;;;;;;;85.53;38.30;;;;;;;1.14;100.00;101217.52;5104409;54;1140917;-65
2022/12/05 06:25:14;;;;;;;61.63;27.10;;;;;;;1.10;100.00;101215.03;5144163;54;1140761;-65
2022/12/05 06:30:20;;;;;;;58.80;28.20;;;;;;;1.09;100.00;101213.33;5190320;54;1140800;-66
2022/12/05 06:35:26;;;;;;;65.10;29.43;;;;;;;1.07;100.00;101208.16;5024664;56;1140882;-69
2022/12/05 06:40:31;;;;;;;52.20;26.10;;;;;;;1.08;100.00;101219.42;5212721;54;1140896;-69
2022/12/05 06:45:41;;;;;;;69.77;28.67;;;;;;;1.08;100.00;101222.03;5192967;54;1140893;-67
2022/12/05 06:50:52;;;;;;;52.03;24.98;;;;;;;1.12;100.00;101225.83;5127075;55;1140960;-68
2022/12/05 06:56:00;;;;;;;52.93;27.20;;;;;;;1.10;100.00;101236.73;5124720;55;1141065;-69
2022/12/05 07:06:36;;;;;;;57.20;26.73;;;;;;;1.08;100.00;101238.96;5153616;55;1140885;-67
2022/12/05 07:11:42;;;;;;;58.68;27.05;;;;;;;1.08;100.00;101235.91;5117253;55;1140937;-68
2022/12/05 07:16:48;;;;;;;50.87;25.97;;;;;;;1.11;100.00;101231.07;5174566;55;1141095;-66
2022/12/05 07:21:54;;;;;;;45.57;22.10;;;;;;;1.12;100.00;101238.00;5221855;54;1140902;-65
2022/12/05 07:27:00;;;;;;;63.10;27.60;;;;;;;1.12;100.00;101238.00;5263727;54;1140938;-66
2022/12/05 07:32:06;;;;;;;46.97;24.37;;;;;;;1.09;100.00;101232.86;5232682;54;1140922;-67
2022/12/05 07:37:12;;;;;;;52.27;24.47;;;;;;;1.10;100.00;101232.82;5211489;54;1140889;-67
2022/12/05 07:42:19;;;;;;;46.07;24.07;;;;;;;1.09;100.00;101226.34;5177716;54;1140987;-64
2022/12/05 07:47:24;;;;;;;56.70;27.83;;;;;;;1.11;100.00;101229.77;5212910;54;1140915;-66
2022/12/05 07:52:31;;;;;;;62.80;28.80;;;;;;;1.09;100.00;101234.16;5266886;54;1237882;-69
2022/12/05 07:57:37;;;;;;;65.40;32.13;;;;;;;1.11;100.00;101233.67;5283459;54;1141023;-65
2022/12/05 08:02:42;;;;;;;56.25;28.35;;;;;;;1.13;100.00;101224.08;5263683;54;1140791;-66
2022/12/05 08:07:48;;;;;;;49.70;26.33;;;;;;;1.16;100.00;101231.36;5325602;54;1140794;-69
2022/12/05 08:12:55;;;;;;;57.43;27.82;;;;;;;1.20;100.00;101226.94;5287965;54;1140783;-68
2022/12/05 08:18:00;;;;;;;53.87;29.30;;;;;;;1.19;100.00;101221.31;5189093;55;1140859;-64
2022/12/05 08:23:06;;;;;;;50.20;23.10;;;;;;;1.17;100.00;101225.70;5221639;54;1140839;-68
2022/12/05 08:28:12;;;;;;;60.83;30.77;;;;;;;1.16;100.00;101207.92;5242718;54;1140927;-68
2022/12/05 08:33:17;;;;;;;61.40;31.97;;;;;;;1.16;100.00;101207.92;5262658;54;1140953;-67
2022/12/05 08:38:23;;;;;;;65.70;30.73;;;;;;;1.18;100.00;101219.60;5231125;54;1140745;-69
2022/12/05 08:43:30;;;;;;;105.73;49.50;;;;;;;1.22;100.00;101221.23;5182184;54;1140707;-65
2022/12/05 08:48:37;;;;;;;60.73;30.00;;;;;;;1.20;100.00;101219.11;5211115;54;1142900;-68
2022/12/05 08:53:43;;;;;;;70.25;36.23;;;;;;;1.21;100.00;101219.52;5237441;54;1140775;-70
2022/12/05 08:58:49;;;;;;;51.97;28.03;;;;;;;1.24;100.00;101228.09;5211179;54;1150378;-67
2022/12/05 09:03:54;;;;;;;55.37;33.00;;;;;;;1.29;100.00;101234.48;5204769;54;1143670;-69
2022/12/05 09:09:04;;;;;;;74.80;39.67;;;;;;;1.30;100.00;101239.66;5004868;56;1140813;-64
2022/12/05 09:14:10;;;;;;;53.47;28.57;;;;;;;1.33;100.00;101255.20;4995391;56;1140972;-66
2022/12/05 09:19:24;;;;;;;59.70;27.53;;;;;;;1.29;100.00;101235.33;4978185;56;1141042;-68
2022/12/05 09:24:30;;;;;;;56.67;26.53;;;;;;;1.30;100.00;101221.41;5038588;55;1140993;-69
2022/12/05 09:29:36;;;;;;;71.40;34.00;;;;;;;1.33;100.00;101222.63;5118611;56;1140912;-67
2022/12/05 09:34:41;;;;;;;343.67;159.43;;;;;;;1.35;100.00;101211.72;5171782;55;1141010;-69
2022/12/05 09:39:47;;;;;;;59.27;32.97;;;;;;;1.38;100.00;101219.42;5136543;55;1154460;-64
2022/12/05 09:45:19;;;;;;;69.58;37.30;;;;;;;1.39;100.00;101222.89;5218873;55;1140822;-67
2022/12/05 09:50:34;;;;;;;69.80;34.75;;;;;;;1.39;100.00;101217.67;5207109;54;1140846;-69
2022/12/05 09:55:49;;;;;;;63.33;30.90;;;;;;;1.40;100.00;101209.81;5215845;55;1140838;-69
2022/12/05 10:01:00;;;;;;;62.00;28.15;;;;;;;1.41;100.00;101209.37;5216169;55;1140895;-66
2022/12/05 10:06:17;;;;;;;61.67;28.20;;;;;;;1.43;100.00;101204.11;5222357;55;1140903;-68
2022/12/05 10:12:15;;;;;;;57.57;27.87;;;;;;;1.45;100.00;101214.05;5080215;55;1140931;-67
2022/12/05 10:17:34;;;;;;;55.20;26.50;;;;;;;1.44;100.00;101207.98;5044005;56;1140990;-67
2022/12/05 10:22:47;;;;;;;54.70;27.13;;;;;;;1.43;100.00;101204.97;5092985;56;1140919;-64
2022/12/05 10:27:57;;;;;;;59.08;29.18;;;;;;;1.46;100.00;101197.52;5049804;56;1140879;-68
2022/12/05 10:33:07;;;;;;;87.43;43.07;;;;;;;1.51;100.00;101192.58;5112242;56;1140835;-67
2022/12/05 10:38:26;;;;;;;93.25;43.02;;;;;;;1.53;100.00;101186.02;5113248;56;1140837;-66
2022/12/05 10:43:34;;;;;;;72.30;41.15;;;;;;;1.53;100.00;101179.51;5099799;55;1140881;-65
2022/12/05 10:48:42;;;;;;;74.17;42.10;;;;;;;1.52;100.00;101179.10;5086795;56;1140995;-67
2022/12/05 10:53:51;;;;;;;54.83;26.50;;;;;;;1.54;100.00;101177.27;5106695;56;1140923;-68
2022/12/05 10:58:59;;;;;;;62.00;30.37;;;;;;;1.55;100.00;101187.66;5086965;56;1140931;-66
2022/12/05 11:04:29;;;;;;;63.57;29.87;;;;;;;1.54;100.00;101189.86;5163226;55;1140715;-65
2022/12/05 11:09:37;;;;;;;65.67;31.37;;;;;;;1.55;100.00;101195.93;5083844;56;1140775;-68
2022/12/05 11:15:09;;;;;;;100.33;54.07;;;;;;;1.59;100.00;101199.71;5040131;57;1261862;-65
2022/12/05 11:20:22;;;;;;;67.00;34.15;;;;;;;1.62;100.00;101177.47;5002603;57;1142924;-71
2022/12/05 11:25:36;;;;;;;68.00;33.53;;;;;;;1.66;100.00;101161.28;5008669;57;1140813;-68
2022/12/05 11:31:02;;;;;;;59.55;28.50;;;;;;;1.66;100.00;101150.86;5079223;55;1140866;-68
2022/12/05 11:36:20;;;;;;;61.23;29.93;;;;;;;1.66;100.00;101139.98;5172188;55;1140914;-66
2022/12/05 11:41:54;;;;;;;57.20;26.67;;;;;;;1.69;100.00;101124.66;5080944;56;1140802;-67
2022/12/05 11:47:20;;;;;;;;;;;;;;;1.70;100.00;101132.89;5080732;55;1141079;-68
2022/12/05 11:52:50;;;;;;;62.90;29.30;;;;;;;1.70;100.00;101141.57;5119768;54;974025;-64
2022/12/05 11:58:38;;;;;;;61.45;27.62;;;;;;;1.69;100.00;101120.30;5044079;56;1138825;-68
2022/12/05 12:04:18;;;;;;;66.10;33.13;;;;;;;1.66;100.00;101132.16;5109913;56;1140891;-70
2022/12/05 12:09:32;;;;;;;65.97;31.53;;;;;;;1.68;100.00;101129.02;5080066;56;1140776;-68
2022/12/05 12:14:48;;;;;;;63.47;29.90;;;;;;;1.67;100.00;101131.27;5063771;56;1141031;-69
2022/12/05 12:20:14;;;;;;;60.70;28.02;;;;;;;1.65;100.00;101129.15;5064760;56;1140828;-68
2022/12/05 12:25:36;;;;;;;86.08;39.98;;;;;;;1.63;100.00;101115.30;5122906;55;1140794;-68
2022/12/05 12:31:04;;;;;;;68.15;34.35;;;;;;;1.70;100.00;101106.37;5119959;56;1140904;-66
2022/12/05 12:36:38;;;;;;;68.27;31.93;;;;;;;1.69;100.00;101111.63;5115764;55;1141017;-67
2022/12/05 12:42:15;;;;;;;70.28;32.63;;;;;;;1.66;100.00;101102.17;5106083;56;1141066;-67
2022/12/05 12:47:58;;;;;;;73.30;33.50;;;;;;;1.70;100.00;101097.24;5049706;56;1140996;-66
2022/12/05 12:53:28;;;;;;;220.42;96.80;;;;;;;1.72;100.00;101104.56;5034847;56;1140806;-68
2022/12/05 12:59:01;;;;;;;96.27;52.97;;;;;;;1.75;100.00;101102.31;4942958;58;1143011;-68
2022/12/05 13:04:17;;;;;;;103.95;54.58;;;;;;;1.76;100.00;101091.84;5050460;55;1140938;-68
2022/12/05 13:09:42;;;;;;;72.37;34.70;;;;;;;1.77;100.00;101088.78;5131982;56;1143035;-68
2022/12/05 13:15:01;;;;;;;71.13;34.00;;;;;;;1.79;100.00;101089.59;5166519;55;1140753;-68
2022/12/05 13:20:21;;;;;;;68.30;34.07;;;;;;;1.81;100.00;101080.42;5039625;56;1140998;-68
2022/12/05 13:25:31;;;;;;;62.60;30.67;;;;;;;1.78;100.00;101077.45;5059874;56;1140764;-67
2022/12/05 13:30:56;;;;;;;60.67;28.77;;;;;;;1.75;100.00;101071.03;5188755;55;1140913;-65
2022/12/05 13:46:34;;;;;;;54.80;27.93;;;;;;;1.82;100.00;101084.28;5046323;55;1140993;-66
2022/12/05 13:51:43;;;;;;;52.30;26.10;;;;;;;1.80;100.00;101086.09;5041083;57;1141099;-68
2022/12/05 13:57:05;;;;;;;55.63;29.60;;;;;;;1.79;100.00;101082.22;5117084;56;1140798;-70
2022/12/05 14:02:28;;;;;;;60.50;28.17;;;;;;;1.80;100.00;101083.92;5110403;56;1140688;-66
2022/12/05 14:07:45;;;;;;;57.53;27.30;;;;;;;1.81;100.00;101072.14;5048856;56;1141022;-68
2022/12/05 14:12:55;;;;;;;63.53;33.83;;;;;;;1.81;100.00;101076.05;5027901;56;1141017;-65
2022/12/05 14:18:35;;;;;;;66.33;31.45;;;;;;;1.80;100.00;101080.02;5128142;56;1141185;-67
2022/12/05 14:24:24;;;;;;;66.10;37.67;;;;;;;1.83;100.00;101069.48;5193044;55;1140709;-68
2022/12/05 14:29:37;;;;;;;74.80;40.40;;;;;;;1.88;100.00;101065.81;5110887;56;1141095;-68
2022/12/05 14:34:55;;;;;;;61.75;33.75;;;;;;;1.98;100.00;101068.98;5111530;56;1140895;-71
2022/12/05 14:40:06;;;;;;;66.83;33.23;;;;;;;1.98;100.00;101060.70;5131088;56;1141186;-67
2022/12/05 14:45:37;;;;;;;63.17;32.90;;;;;;;1.95;100.00;101062.56;5092426;56;1140910;-68
2022/12/05 14:50:48;;;;;;;87.97;39.18;;;;;;;1.93;100.00;101055.23;5097985;56;1140776;-67
2022/12/05 14:56:02;;;;;;;66.03;35.07;;;;;;;1.94;100.00;101044.75;5109240;56;1140755;-69
2022/12/05 15:01:21;;;;;;;71.47;37.00;;;;;;;1.96;100.00;101044.70;5121212;56;1140844;-69
2022/12/05 15:06:27;;;;;;;82.47;38.10;;;;;;;1.91;100.00;101052.67;5085765;56;1140898;-71
2022/12/05 15:11:34;;;;;;;64.80;32.67;;;;;;;1.91;100.00;101047.91;5135404;55;1141053;-68
2022/12/05 15:16:44;;;;;;;68.20;33.40;;;;;;;1.91;100.00;101043.55;5193828;55;1140937;-69
2022/12/05 15:21:55;;;;;;;64.63;30.43;;;;;;;1.96;100.00;101043.40;5183709;55;1140771;-68
2022/12/05 15:27:04;;;;;;;92.00;45.03;;;;;;;1.94;100.00;101033.47;5063537;56;1140755;-70
2022/12/05 15:32:19;;;;;;;80.97;39.73;;;;;;;1.93;100.00;101032.61;5069442;56;1140871;-65
2022/12/05 15:37:30;;;;;;;95.20;41.03;;;;;;;1.92;100.00;101032.20;5071107;56;1140926;-66
2022/12/05 15:42:45;;;;;;;90.43;42.13;;;;;;;1.94;100.00;101024.33;5045068;55;1140881;-65
2022/12/05 15:47:57;;;;;;;87.20;38.45;;;;;;;1.98;100.00;101024.64;5040134;56;1140933;-69
2022/12/05 15:53:27;;;;;;;112.60;52.37;;;;;;;2.02;100.00;101024.45;5081337;56;1140940;-67
2022/12/05 15:58:39;;;;;;;85.90;43.57;;;;;;;2.03;100.00;101024.00;5055893;56;1142933;-66
2022/12/05 16:03:58;;;;;;;92.12;44.83;;;;;;;2.00;100.00;101028.88;5127767;55;1140867;-69
2022/12/05 16:09:11;;;;;;;83.20;39.70;;;;;;;2.00;100.00;101032.78;5071455;56;1140855;-70
2022/12/05 16:14:17;;;;;;;78.53;41.20;;;;;;;2.03;100.00;101031.38;5106332;55;1140835;-68
2022/12/05 16:19:23;;;;;;;67.93;37.43;;;;;;;2.04;100.00;101027.02;5055705;56;1140819;-66
2022/12/05 16:24:33;;;;;;;77.70;36.73;;;;;;;2.06;100.00;101029.98;5062446;56;1140885;-68
2022/12/05 16:29:39;;;;;;;72.13;38.13;;;;;;;2.09;100.00;101023.36;5052029;56;1140903;-65
2022/12/05 16:34:46;;;;;;;74.95;36.98;;;;;;;2.09;100.00;101027.72;5052732;56;1140867;-69
2022/12/05 16:39:52;;;;;;;67.70;35.73;;;;;;;2.11;100.00;101025.47;5074698;56;1141041;-71
2022/12/05 16:45:03;;;;;;;66.45;35.40;;;;;;;2.17;100.00;101017.86;5106145;56;1140907;-65
2022/12/05 16:50:34;;;;;;;71.43;34.50;;;;;;;2.22;100.00;101017.70;5053791;56;1140895;-67
2022/12/05 16:55:42;;;;;;;91.97;46.08;;;;;;;2.20;100.00;101023.42;5031854;57;1141002;-64
2022/12/05 17:00:48;;;;;;;94.77;46.17;;;;;;;2.20;100.00;101016.45;5043582;56;1140852;-67
2022/12/05 17:05:54;;;;;;;464.93;192.77;;;;;;;2.20;100.00;101014.30;5076879;56;1140751;-68
2022/12/05 17:11:02;;;;;;;569.93;309.07;;;;;;;2.21;100.00;101002.50;5087137;56;1144978;-68
2022/12/05 17:16:08;;;;;;;125.90;57.93;;;;;;;2.24;100.00;100994.56;5080920;56;1145213;-68
2022/12/05 17:21:19;;;;;;;126.43;62.73;;;;;;;2.20;100.00;100994.27;4961018;56;1143138;-71
2022/12/05 17:26:25;;;;;;;126.40;55.58;;;;;;;2.16;100.00;101007.02;5020013;56;1143023;-65
2022/12/05 17:31:32;;;;;;;109.00;42.77;;;;;;;2.16;100.00;100997.89;5003712;57;1143186;-68
2022/12/05 17:36:37;;;;;;;92.23;42.67;;;;;;;2.14;100.00;100987.13;5096365;56;1142877;-66
2022/12/05 17:41:43;;;;;;;89.10;39.27;;;;;;;2.16;100.00;100999.19;5082523;55;1140807;-66
2022/12/05 17:46:50;;;;;;;109.33;46.40;;;;;;;2.13;100.00;100988.89;5045204;55;1141059;-70
2022/12/05 17:51:57;;;;;;;105.77;46.50;;;;;;;2.10;100.00;100990.30;5028743;56;1143073;-71
2022/12/05 17:57:03;;;;;;;119.65;52.23;;;;;;;2.09;100.00;100994.66;5017636;56;1143019;-67
2022/12/05 18:02:12;;;;;;;107.70;45.87;;;;;;;2.08;100.00;100996.86;5056622;55;1143103;-68
2022/12/05 18:07:17;;;;;;;121.90;48.80;;;;;;;2.15;100.00;100990.11;5119360;55;1143260;-64
2022/12/05 18:12:23;;;;;;;110.65;45.30;;;;;;;2.18;100.00;100983.03;5098856;56;1142917;-70
2022/12/05 18:17:29;;;;;;;142.87;59.27;;;;;;;2.21;100.00;100988.14;5083824;56;1142883;-70
2022/12/05 18:22:35;;;;;;;141.73;52.77;;;;;;;2.14;100.00;100980.13;5011477;56;1142930;-69
2022/12/05 18:27:40;;;;;;;160.60;64.70;;;;;;;2.16;100.00;100982.68;4998555;57;1142991;-68
2022/12/05 18:32:46;;;;;;;117.80;48.50;;;;;;;2.18;100.00;100997.83;4983796;56;1143136;-69
2022/12/05 18:37:52;;;;;;;123.83;44.60;;;;;;;2.19;100.00;100981.27;4978764;56;1143004;-70
2022/12/05 18:42:57;;;;;;;154.90;58.65;;;;;;;2.29;100.00;100987.89;5044314;56;1145041;-65
2022/12/05 18:48:06;;;;;;;139.25;53.45;;;;;;;2.27;100.00;100977.95;5013515;56;1143214;-69
2022/12/05 18:53:12;;;;;;;123.53;48.52;;;;;;;2.28;100.00;100974.44;5019162;56;1142863;-67
2022/12/05 18:58:17;;;;;;;120.70;44.20;;;;;;;2.27;100.00;100980.56;5009717;57;1143169;-68
2022/12/05 19:03:23;;;;;;;181.70;62.80;;;;;;;2.27;100.00;100976.65;5118201;55;1142951;-70
2022/12/05 19:08:29;;;;;;;204.00;77.97;;;;;;;2.37;100.00;100975.40;5102861;56;1142932;-71
2022/12/05 19:13:35;;;;;;;235.87;81.00;;;;;;;2.37;100.00;100975.40;5103332;56;1143103;-67
2022/12/05 19:18:41;;;;;;;210.57;72.20;;;;;;;2.44;100.00;100980.32;5091942;55;1145164;-68
2022/12/05 19:23:47;;;;;;;162.25;53.00;;;;;;;2.45;100.00;100974.65;5098569;56;1142987;-68
2022/12/05 19:28:53;;;;;;;162.27;61.67;;;;;;;2.41;100.00;100975.23;5102939;56;1142781;-65
2022/12/05 19:34:04;;;;;;;191.97;79.90;;;;;;;2.37;100.00;100980.16;5128339;55;1143147;-66
2022/12/05 19:39:24;;;;;;;209.43;68.27;;;;;;;2.40;100.00;100983.97;5127348;55;1143277;-67
2022/12/05 19:44:29;;;;;;;204.63;65.43;;;;;;;2.44;100.00;100982.11;5104500;55;1142774;-67
2022/12/05 19:49:35;;;;;;;195.60;65.80;;;;;;;2.51;100.00;100978.80;5175550;55;1142867;-69
2022/12/05 19:54:41;;;;;;;197.65;67.85;;;;;;;2.51;100.00;100978.80;5171105;55;1144988;-68
2022/12/05 19:59:47;;;;;;;167.20;61.45;;;;;;;2.53;100.00;100983.52;5175122;54;1143574;-67
2022/12/05 20:04:53;;;;;;;169.30;66.53;;;;;;;2.51;100.00;100975.73;5212365;54;1142930;-71
2022/12/05 20:10:00;;;;;;;214.07;73.70;;;;;;;2.46;100.00;100977.66;5204594;54;1143027;-70
2022/12/05 20:15:06;;;;;;;172.33;65.97;;;;;;;2.41;100.00;100974.39;5217715;54;1143185;-68
2022/12/05 20:20:12;;;;;;;128.93;49.80;;;;;;;2.38;100.00;100967.52;5232901;54;1143065;-66
2022/12/05 20:25:19;;;;;;;131.97;49.83;;;;;;;2.40;100.00;100965.70;5261116;54;1143247;-69
2022/12/05 20:30:24;;;;;;;136.43;49.30;;;;;;;2.41;100.00;100960.03;5220365;54;1143025;-65
2022/12/05 20:35:30;;;;;;;126.03;46.37;;;;;;;2.42;100.00;100956.06;5217873;54;1143143;-68
2022/12/05 20:40:36;;;;;;;137.57;50.90;;;;;;;2.44;100.00;100942.47;5202589;54;1142899;-64
2022/12/05 20:45:42;;;;;;;171.70;66.80;;;;;;;2.52;100.00;100951.79;5249881;54;1145011;-69
2022/12/05 20:50:47;;;;;;;207.65;73.55;;;;;;;2.51;100.00;100956.16;5220053;54;1142917;-66
2022/12/05 20:55:53;;;;;;;180.43;68.10;;;;;;;2.46;100.00;100945.02;5231389;54;1143062;-70
2022/12/05 21:01:02;;;;;;;202.07;70.63;;;;;;;2.50;100.00;100946.63;5264594;54;1142861;-68
2022/12/05 21:06:14;;;;;;;175.40;61.57;;;;;;;2.55;100.00;100943.84;5216071;54;1142898;-67
2022/12/05 21:11:22;;;;;;;188.60;66.30;;;;;;;2.62;100.00;100945.30;5237504;54;1142868;-68
2022/12/05 21:16:29;;;;;;;195.80;73.37;;;;;;;2.67;100.00;100937.70;5242550;54;1145138;-69
2022/12/05 21:21:34;;;;;;;138.65;53.15;;;;;;;2.71;100.00;100930.16;5181575;54;1142894;-67
2022/12/05 21:26:40;;;;;;;152.87;56.10;;;;;;;2.68;100.00;100926.80;5146615;55;1144565;-65
2022/12/05 21:31:49;;;;;;;182.55;72.17;;;;;;;2.61;100.00;100925.31;5167303;54;1143031;-68
2022/12/05 21:36:55;;;;;;;150.43;56.43;;;;;;;2.60;100.00;100920.55;5216097;54;1142968;-69
2022/12/05 21:42:00;;;;;;;134.83;50.07;;;;;;;2.62;100.00;100915.27;5189088;54;1142998;-64
2022/12/05 21:47:06;;;;;;;139.67;54.23;;;;;;;2.68;100.00;100921.13;5177815;54;1145104;-68
2022/12/05 21:52:11;;;;;;;144.40;56.93;;;;;;;2.71;100.00;100921.47;5187947;54;1145302;-69
2022/12/05 21:57:18;;;;;;;169.93;60.30;;;;;;;2.76;100.00;100926.88;5198457;54;1143022;-66
2022/12/05 22:02:23;;;;;;;156.60;60.93;;;;;;;2.74;100.00;100914.37;5306856;54;1142962;-66
2022/12/05 22:07:29;;;;;;;145.53;52.57;;;;;;;2.69;100.00;100912.38;5297605;54;1142918;-68
2022/12/05 22:12:35;;;;;;;154.67;54.27;;;;;;;2.63;100.00;100914.36;5283964;54;1142981;-65
2022/12/05 22:17:40;;;;;;;162.77;59.10;;;;;;;2.58;100.00;100914.56;5287976;54;1143134;-65
2022/12/05 22:22:46;;;;;;;142.93;55.40;;;;;;;2.65;100.00;100913.85;5300452;54;1143191;-66
2022/12/05 22:27:54;;;;;;;139.00;54.87;;;;;;;2.74;100.00;100915.67;5257527;54;1144982;-67
2022/12/05 22:33:00;;;;;;;168.27;61.97;;;;;;;2.80;100.00;100913.25;5179768;54;1145002;-68
2022/12/05 22:38:06;;;;;;;162.03;58.93;;;;;;;2.87;100.00;100910.81;5227942;54;1142901;-69
2022/12/05 22:43:11;;;;;;;152.67;58.33;;;;;;;2.87;100.00;100909.51;5219514;54;1142970;-70
2022/12/05 22:48:18;;;;;;;150.87;53.83;;;;;;;2.80;100.00;100901.05;5246747;54;1142911;-68
2022/12/05 22:53:25;;;;;;;144.50;53.67;;;;;;;2.75;100.00;100896.94;5226814;54;1261402;-68
2022/12/05 22:58:31;;;;;;;143.60;52.27;;;;;;;2.73;100.00;100896.14;5228874;54;1152255;-66
2022/12/05 23:03:37;;;;;;;149.40;54.10;;;;;;;2.71;100.00;100890.98;5220488;54;1143051;-68
2022/12/05 23:08:46;;;;;;;141.33;53.87;;;;;;;2.72;100.00;100877.02;5203689;55;1143027;-68
2022/12/05 23:13:54;;;;;;;144.37;56.60;;;;;;;2.73;100.00;100877.86;5218793;55;1145074;-66
2022/12/05 23:19:03;;;;;;;148.70;60.05;;;;;;;2.73;100.00;100876.55;5222424;54;1143193;-69